sensor_id;sensor_type;location;lat;lon;timestamp;P1;durP1;ratioP1;P2;durP2;ratioP2
32080;SDS011;18593;51.426;7.030;2024-01-15T00:00:49;55.28;;;27.35;;
32080;SDS011;18593;51.426;7.030;2024-01-15T00:03:17;60.47;;;27.92;;
32080;SDS011;18593;51.426;7.030;2024-01-15T00:05:46;58.15;;;27.20;;
32080;SDS011;18593;51.426;7.030;2024-01-15T00:08:14;57.58;;;27.02;;
32080;SDS011;18593;51.426;7.030;2024-01-15T00:10:41;56.58;;;26.63;;
32080;SDS011;18593;51.426;7.030;2024-01-15T00:13:09;54.97;;;27.02;;
32080;SDS011;18593;51.426;7.030;2024-01-15T00:15:37;54.33;;;24.92;;
32080;SDS011;18593;51.426;7.030;2024-01-15T00:18:05;57.25;;;26.08;;
32080;SDS011;18593;51.426;7.030;2024-01-15T00:20:33;53.60;;;27.70;;
32080;SDS011;18593;51.426;7.030;2024-01-15T00:23:01;49.25;;;25.02;;
32080;SDS011;18593;51.426;7.030;2024-01-15T00:25:30;52.55;;;25.73;;
32080;SDS011;18593;51.426;7.030;2024-01-15T00:27:59;52.10;;;25.92;;
32080;SDS011;18593;51.426;7.030;2024-01-15T00:30:27;47.92;;;25.58;;
32080;SDS011;18593;51.426;7.030;2024-01-15T00:32:54;54.97;;;27.33;;
32080;SDS011;18593;51.426;7.030;2024-01-15T00:35:23;52.95;;;26.33;;
32080;SDS011;18593;51.426;7.030;2024-01-15T00:37:50;51.42;;;25.70;;
32080;SDS011;18593;51.426;7.030;2024-01-15T00:40:21;56.95;;;26.42;;
32080;SDS011;18593;51.426;7.030;2024-01-15T00:42:50;53.17;;;26.92;;
32080;SDS011;18593;51.426;7.030;2024-01-15T00:45:18;59.75;;;27.95;;
32080;SDS011;18593;51.426;7.030;2024-01-15T00:47:46;57.65;;;28.35;;
32080;SDS011;18593;51.426;7.030;2024-01-15T00:50:14;56.88;;;27.90;;
32080;SDS011;18593;51.426;7.030;2024-01-15T00:52:42;54.95;;;27.40;;
32080;SDS011;18593;51.426;7.030;2024-01-15T00:55:10;55.33;;;26.70;;
32080;SDS011;18593;51.426;7.030;2024-01-15T00:57:40;58.30;;;27.70;;
32080;SDS011;18593;51.426;7.030;2024-01-15T01:00:08;55.78;;;27.35;;
32080;SDS011;18593;51.426;7.030;2024-01-15T01:02:36;53.85;;;26.85;;
32080;SDS011;18593;51.426;7.030;2024-01-15T01:05:04;53.97;;;25.95;;
32080;SDS011;18593;51.426;7.030;2024-01-15T01:07:32;52.63;;;27.02;;
32080;SDS011;18593;51.426;7.030;2024-01-15T01:10:00;52.13;;;25.77;;
32080;SDS011;18593;51.426;7.030;2024-01-15T01:12:28;56.85;;;26.98;;
32080;SDS011;18593;51.426;7.030;2024-01-15T01:14:57;49.20;;;26.13;;
32080;SDS011;18593;51.426;7.030;2024-01-15T01:17:28;46.92;;;23.92;;
32080;SDS011;18593;51.426;7.030;2024-01-15T01:20:01;46.67;;;25.30;;
32080;SDS011;18593;51.426;7.030;2024-01-15T01:22:33;50.40;;;24.73;;
32080;SDS011;18593;51.426;7.030;2024-01-15T01:25:02;52.15;;;24.25;;
32080;SDS011;18593;51.426;7.030;2024-01-15T01:27:32;48.75;;;25.30;;
32080;SDS011;18593;51.426;7.030;2024-01-15T01:30:01;50.78;;;25.08;;
32080;SDS011;18593;51.426;7.030;2024-01-15T01:32:33;51.33;;;25.27;;
32080;SDS011;18593;51.426;7.030;2024-01-15T01:35:00;46.33;;;23.95;;
32080;SDS011;18593;51.426;7.030;2024-01-15T01:37:28;49.80;;;24.40;;
32080;SDS011;18593;51.426;7.030;2024-01-15T01:39:56;44.50;;;23.58;;
32080;SDS011;18593;51.426;7.030;2024-01-15T01:42:25;48.28;;;23.70;;
32080;SDS011;18593;51.426;7.030;2024-01-15T01:44:55;41.58;;;23.08;;
32080;SDS011;18593;51.426;7.030;2024-01-15T01:47:26;46.85;;;23.92;;
32080;SDS011;18593;51.426;7.030;2024-01-15T01:49:56;48.25;;;24.02;;
32080;SDS011;18593;51.426;7.030;2024-01-15T01:52:24;47.08;;;23.80;;
32080;SDS011;18593;51.426;7.030;2024-01-15T01:54:51;44.22;;;23.95;;
32080;SDS011;18593;51.426;7.030;2024-01-15T01:57:22;45.40;;;24.13;;
32080;SDS011;18593;51.426;7.030;2024-01-15T01:59:50;48.13;;;24.27;;
32080;SDS011;18593;51.426;7.030;2024-01-15T02:02:17;47.30;;;23.80;;
32080;SDS011;18593;51.426;7.030;2024-01-15T02:04:48;47.40;;;24.67;;
32080;SDS011;18593;51.426;7.030;2024-01-15T02:07:16;49.63;;;24.92;;
32080;SDS011;18593;51.426;7.030;2024-01-15T02:09:44;50.95;;;24.23;;
32080;SDS011;18593;51.426;7.030;2024-01-15T02:12:15;42.55;;;23.00;;
32080;SDS011;18593;51.426;7.030;2024-01-15T02:14:43;41.90;;;22.05;;
32080;SDS011;18593;51.426;7.030;2024-01-15T02:17:10;44.28;;;22.30;;
32080;SDS011;18593;51.426;7.030;2024-01-15T02:19:41;42.85;;;22.30;;
32080;SDS011;18593;51.426;7.030;2024-01-15T02:22:10;45.63;;;22.87;;
32080;SDS011;18593;51.426;7.030;2024-01-15T02:24:39;47.78;;;22.98;;
32080;SDS011;18593;51.426;7.030;2024-01-15T02:27:07;41.17;;;20.90;;
32080;SDS011;18593;51.426;7.030;2024-01-15T02:29:35;39.85;;;21.15;;
32080;SDS011;18593;51.426;7.030;2024-01-15T02:32:04;42.35;;;20.92;;
32080;SDS011;18593;51.426;7.030;2024-01-15T02:34:32;37.38;;;19.50;;
32080;SDS011;18593;51.426;7.030;2024-01-15T02:37:03;46.35;;;19.85;;
32080;SDS011;18593;51.426;7.030;2024-01-15T02:39:30;40.47;;;19.67;;
32080;SDS011;18593;51.426;7.030;2024-01-15T02:42:01;47.88;;;19.15;;
32080;SDS011;18593;51.426;7.030;2024-01-15T02:44:29;45.17;;;18.40;;
32080;SDS011;18593;51.426;7.030;2024-01-15T02:46:57;42.53;;;18.25;;
32080;SDS011;18593;51.426;7.030;2024-01-15T02:49:24;40.85;;;18.38;;
32080;SDS011;18593;51.426;7.030;2024-01-15T02:51:52;39.75;;;17.52;;
32080;SDS011;18593;51.426;7.030;2024-01-15T02:54:19;34.65;;;17.05;;
32080;SDS011;18593;51.426;7.030;2024-01-15T02:56:53;35.83;;;17.45;;
32080;SDS011;18593;51.426;7.030;2024-01-15T02:59:22;43.15;;;18.02;;
32080;SDS011;18593;51.426;7.030;2024-01-15T03:01:51;37.83;;;18.13;;
32080;SDS011;18593;51.426;7.030;2024-01-15T03:04:18;36.92;;;16.60;;
32080;SDS011;18593;51.426;7.030;2024-01-15T03:06:46;34.78;;;17.00;;
32080;SDS011;18593;51.426;7.030;2024-01-15T03:09:13;33.80;;;16.65;;
32080;SDS011;18593;51.426;7.030;2024-01-15T03:11:46;33.42;;;16.08;;
32080;SDS011;18593;51.426;7.030;2024-01-15T03:14:14;38.55;;;17.30;;
32080;SDS011;18593;51.426;7.030;2024-01-15T03:16:43;31.60;;;17.17;;
32080;SDS011;18593;51.426;7.030;2024-01-15T03:19:11;33.58;;;16.10;;
32080;SDS011;18593;51.426;7.030;2024-01-15T03:21:38;31.70;;;15.65;;
32080;SDS011;18593;51.426;7.030;2024-01-15T03:24:06;37.13;;;16.45;;
32080;SDS011;18593;51.426;7.030;2024-01-15T03:26:33;35.13;;;15.57;;
32080;SDS011;18593;51.426;7.030;2024-01-15T03:29:04;31.48;;;16.67;;
32080;SDS011;18593;51.426;7.030;2024-01-15T03:31:32;34.90;;;17.27;;
32080;SDS011;18593;51.426;7.030;2024-01-15T03:34:04;34.95;;;17.63;;
32080;SDS011;18593;51.426;7.030;2024-01-15T03:36:34;36.92;;;17.73;;
32080;SDS011;18593;51.426;7.030;2024-01-15T03:39:03;37.60;;;19.33;;
32080;SDS011;18593;51.426;7.030;2024-01-15T03:41:32;40.00;;;19.88;;
32080;SDS011;18593;51.426;7.030;2024-01-15T03:44:01;46.20;;;20.65;;
32080;SDS011;18593;51.426;7.030;2024-01-15T03:46:29;39.85;;;19.83;;
32080;SDS011;18593;51.426;7.030;2024-01-15T03:48:58;44.55;;;22.13;;
32080;SDS011;18593;51.426;7.030;2024-01-15T03:51:31;39.80;;;19.95;;
32080;SDS011;18593;51.426;7.030;2024-01-15T03:54:02;40.35;;;19.52;;
32080;SDS011;18593;51.426;7.030;2024-01-15T03:56:30;36.67;;;19.65;;
32080;SDS011;18593;51.426;7.030;2024-01-15T03:58:58;45.22;;;21.48;;
32080;SDS011;18593;51.426;7.030;2024-01-15T04:01:25;39.95;;;20.23;;
32080;SDS011;18593;51.426;7.030;2024-01-15T04:03:55;42.60;;;21.02;;
32080;SDS011;18593;51.426;7.030;2024-01-15T04:06:24;36.67;;;20.05;;
32080;SDS011;18593;51.426;7.030;2024-01-15T04:08:55;41.50;;;22.35;;
32080;SDS011;18593;51.426;7.030;2024-01-15T04:11:23;39.53;;;21.02;;
32080;SDS011;18593;51.426;7.030;2024-01-15T04:14:05;36.30;;;21.35;;
32080;SDS011;18593;51.426;7.030;2024-01-15T04:16:33;38.90;;;21.02;;
32080;SDS011;18593;51.426;7.030;2024-01-15T04:19:04;41.22;;;20.70;;
32080;SDS011;18593;51.426;7.030;2024-01-15T04:21:39;39.75;;;21.65;;
32080;SDS011;18593;51.426;7.030;2024-01-15T04:24:12;42.10;;;20.95;;
32080;SDS011;18593;51.426;7.030;2024-01-15T04:26:43;38.50;;;20.27;;
32080;SDS011;18593;51.426;7.030;2024-01-15T04:29:26;37.10;;;21.17;;
32080;SDS011;18593;51.426;7.030;2024-01-15T04:31:56;37.35;;;19.95;;
32080;SDS011;18593;51.426;7.030;2024-01-15T04:34:26;44.28;;;20.92;;
32080;SDS011;18593;51.426;7.030;2024-01-15T04:36:54;42.03;;;21.33;;
32080;SDS011;18593;51.426;7.030;2024-01-15T04:39:34;41.50;;;21.80;;
32080;SDS011;18593;51.426;7.030;2024-01-15T04:42:02;40.88;;;22.10;;
32080;SDS011;18593;51.426;7.030;2024-01-15T04:44:33;41.15;;;20.33;;
32080;SDS011;18593;51.426;7.030;2024-01-15T04:47:01;54.78;;;22.75;;
32080;SDS011;18593;51.426;7.030;2024-01-15T04:49:29;39.50;;;20.40;;
32080;SDS011;18593;51.426;7.030;2024-01-15T04:51:57;37.65;;;20.20;;
32080;SDS011;18593;51.426;7.030;2024-01-15T04:54:24;40.78;;;21.20;;
32080;SDS011;18593;51.426;7.030;2024-01-15T04:56:54;43.17;;;21.38;;
32080;SDS011;18593;51.426;7.030;2024-01-15T04:59:21;33.17;;;19.58;;
32080;SDS011;18593;51.426;7.030;2024-01-15T05:01:49;36.35;;;19.58;;
32080;SDS011;18593;51.426;7.030;2024-01-15T05:04:16;37.10;;;19.63;;
32080;SDS011;18593;51.426;7.030;2024-01-15T05:06:45;36.53;;;19.05;;
32080;SDS011;18593;51.426;7.030;2024-01-15T05:09:16;38.13;;;20.25;;
32080;SDS011;18593;51.426;7.030;2024-01-15T05:11:44;37.90;;;21.38;;
32080;SDS011;18593;51.426;7.030;2024-01-15T05:14:13;37.20;;;19.20;;
32080;SDS011;18593;51.426;7.030;2024-01-15T05:16:46;34.45;;;19.58;;
32080;SDS011;18593;51.426;7.030;2024-01-15T05:19:14;38.45;;;19.08;;
32080;SDS011;18593;51.426;7.030;2024-01-15T05:21:43;36.90;;;19.73;;
32080;SDS011;18593;51.426;7.030;2024-01-15T05:24:11;38.28;;;20.48;;
32080;SDS011;18593;51.426;7.030;2024-01-15T05:26:39;40.35;;;20.05;;
32080;SDS011;18593;51.426;7.030;2024-01-15T05:29:07;35.80;;;19.25;;
32080;SDS011;18593;51.426;7.030;2024-01-15T05:31:36;38.83;;;19.30;;
32080;SDS011;18593;51.426;7.030;2024-01-15T05:34:04;38.95;;;19.88;;
32080;SDS011;18593;51.426;7.030;2024-01-15T05:36:33;37.92;;;20.15;;
32080;SDS011;18593;51.426;7.030;2024-01-15T05:39:01;34.53;;;20.05;;
32080;SDS011;18593;51.426;7.030;2024-01-15T05:41:28;38.20;;;19.40;;
32080;SDS011;18593;51.426;7.030;2024-01-15T05:43:56;39.50;;;20.17;;
32080;SDS011;18593;51.426;7.030;2024-01-15T05:46:23;40.08;;;20.25;;
32080;SDS011;18593;51.426;7.030;2024-01-15T05:48:52;38.35;;;19.45;;
32080;SDS011;18593;51.426;7.030;2024-01-15T05:51:20;38.17;;;18.70;;
32080;SDS011;18593;51.426;7.030;2024-01-15T05:53:49;33.95;;;18.48;;
32080;SDS011;18593;51.426;7.030;2024-01-15T05:56:16;35.72;;;18.52;;
32080;SDS011;18593;51.426;7.030;2024-01-15T05:58:45;38.08;;;19.35;;
32080;SDS011;18593;51.426;7.030;2024-01-15T06:01:12;34.63;;;20.02;;
32080;SDS011;18593;51.426;7.030;2024-01-15T06:03:39;31.67;;;18.00;;
32080;SDS011;18593;51.426;7.030;2024-01-15T06:06:09;36.70;;;18.33;;
32080;SDS011;18593;51.426;7.030;2024-01-15T06:08:40;33.47;;;17.60;;
32080;SDS011;18593;51.426;7.030;2024-01-15T06:11:07;35.00;;;18.25;;
32080;SDS011;18593;51.426;7.030;2024-01-15T06:13:36;35.95;;;18.05;;
32080;SDS011;18593;51.426;7.030;2024-01-15T06:16:11;34.95;;;17.75;;
32080;SDS011;18593;51.426;7.030;2024-01-15T06:18:42;36.15;;;18.25;;
32080;SDS011;18593;51.426;7.030;2024-01-15T06:21:11;30.95;;;17.45;;
32080;SDS011;18593;51.426;7.030;2024-01-15T06:23:40;29.92;;;18.48;;
32080;SDS011;18593;51.426;7.030;2024-01-15T06:26:11;34.53;;;18.05;;
32080;SDS011;18593;51.426;7.030;2024-01-15T06:28:39;30.48;;;18.05;;
32080;SDS011;18593;51.426;7.030;2024-01-15T06:31:06;38.47;;;18.40;;
32080;SDS011;18593;51.426;7.030;2024-01-15T06:33:34;34.25;;;18.20;;
32080;SDS011;18593;51.426;7.030;2024-01-15T06:36:03;37.35;;;19.13;;
32080;SDS011;18593;51.426;7.030;2024-01-15T06:38:33;32.60;;;18.63;;
32080;SDS011;18593;51.426;7.030;2024-01-15T06:41:01;31.80;;;17.88;;
32080;SDS011;18593;51.426;7.030;2024-01-15T06:43:29;34.20;;;17.42;;
32080;SDS011;18593;51.426;7.030;2024-01-15T06:45:56;30.55;;;16.98;;
32080;SDS011;18593;51.426;7.030;2024-01-15T06:48:23;26.52;;;15.30;;
32080;SDS011;18593;51.426;7.030;2024-01-15T06:50:51;25.35;;;14.55;;
32080;SDS011;18593;51.426;7.030;2024-01-15T06:53:19;21.13;;;13.00;;
32080;SDS011;18593;51.426;7.030;2024-01-15T06:55:48;27.48;;;12.90;;
32080;SDS011;18593;51.426;7.030;2024-01-15T06:58:17;21.17;;;12.45;;
32080;SDS011;18593;51.426;7.030;2024-01-15T07:00:44;18.80;;;10.45;;
32080;SDS011;18593;51.426;7.030;2024-01-15T07:03:12;18.75;;;10.30;;
32080;SDS011;18593;51.426;7.030;2024-01-15T07:05:40;19.35;;;9.23;;
32080;SDS011;18593;51.426;7.030;2024-01-15T07:08:07;13.13;;;7.32;;
32080;SDS011;18593;51.426;7.030;2024-01-15T07:10:35;14.60;;;7.63;;
32080;SDS011;18593;51.426;7.030;2024-01-15T07:13:04;13.00;;;6.70;;
32080;SDS011;18593;51.426;7.030;2024-01-15T07:15:32;10.82;;;6.55;;
32080;SDS011;18593;51.426;7.030;2024-01-15T07:17:59;14.55;;;6.57;;
32080;SDS011;18593;51.426;7.030;2024-01-15T07:20:27;11.07;;;6.28;;
32080;SDS011;18593;51.426;7.030;2024-01-15T07:22:55;16.08;;;6.30;;
32080;SDS011;18593;51.426;7.030;2024-01-15T07:25:22;10.60;;;5.63;;
32080;SDS011;18593;51.426;7.030;2024-01-15T07:27:52;9.57;;;5.23;;
32080;SDS011;18593;51.426;7.030;2024-01-15T07:30:22;8.45;;;5.00;;
32080;SDS011;18593;51.426;7.030;2024-01-15T07:32:49;9.60;;;5.10;;
32080;SDS011;18593;51.426;7.030;2024-01-15T07:35:18;9.85;;;5.05;;
32080;SDS011;18593;51.426;7.030;2024-01-15T07:37:46;8.85;;;4.50;;
32080;SDS011;18593;51.426;7.030;2024-01-15T07:40:14;11.30;;;5.30;;
32080;SDS011;18593;51.426;7.030;2024-01-15T07:42:43;11.02;;;6.07;;
32080;SDS011;18593;51.426;7.030;2024-01-15T07:45:11;16.65;;;7.38;;
32080;SDS011;18593;51.426;7.030;2024-01-15T07:47:39;14.70;;;7.75;;
32080;SDS011;18593;51.426;7.030;2024-01-15T07:50:08;16.80;;;8.82;;
32080;SDS011;18593;51.426;7.030;2024-01-15T07:52:36;17.67;;;10.68;;
32080;SDS011;18593;51.426;7.030;2024-01-15T07:55:04;20.63;;;11.50;;
32080;SDS011;18593;51.426;7.030;2024-01-15T07:57:31;23.48;;;13.95;;
32080;SDS011;18593;51.426;7.030;2024-01-15T08:00:01;27.25;;;15.18;;
32080;SDS011;18593;51.426;7.030;2024-01-15T08:02:32;30.15;;;16.27;;
32080;SDS011;18593;51.426;7.030;2024-01-15T08:05:01;26.55;;;15.98;;
32080;SDS011;18593;51.426;7.030;2024-01-15T08:07:28;28.42;;;15.85;;
32080;SDS011;18593;51.426;7.030;2024-01-15T08:09:56;32.00;;;17.48;;
32080;SDS011;18593;51.426;7.030;2024-01-15T08:12:25;26.30;;;16.30;;
32080;SDS011;18593;51.426;7.030;2024-01-15T08:14:52;26.13;;;15.45;;
32080;SDS011;18593;51.426;7.030;2024-01-15T08:17:21;26.02;;;15.55;;
32080;SDS011;18593;51.426;7.030;2024-01-15T08:19:49;25.02;;;15.07;;
32080;SDS011;18593;51.426;7.030;2024-01-15T08:22:19;23.63;;;14.65;;
32080;SDS011;18593;51.426;7.030;2024-01-15T08:24:46;25.52;;;15.25;;
32080;SDS011;18593;51.426;7.030;2024-01-15T08:27:14;21.85;;;14.10;;
32080;SDS011;18593;51.426;7.030;2024-01-15T08:29:41;21.42;;;14.88;;
32080;SDS011;18593;51.426;7.030;2024-01-15T08:32:10;23.15;;;14.60;;
32080;SDS011;18593;51.426;7.030;2024-01-15T08:34:42;23.92;;;14.75;;
32080;SDS011;18593;51.426;7.030;2024-01-15T08:37:09;23.55;;;14.27;;
32080;SDS011;18593;51.426;7.030;2024-01-15T08:39:38;19.52;;;14.27;;
32080;SDS011;18593;51.426;7.030;2024-01-15T08:42:05;20.40;;;14.60;;
32080;SDS011;18593;51.426;7.030;2024-01-15T08:44:33;19.48;;;14.35;;
32080;SDS011;18593;51.426;7.030;2024-01-15T08:47:01;20.55;;;13.93;;
32080;SDS011;18593;51.426;7.030;2024-01-15T08:49:28;23.55;;;15.18;;
32080;SDS011;18593;51.426;7.030;2024-01-15T08:51:56;21.52;;;14.80;;
32080;SDS011;18593;51.426;7.030;2024-01-15T08:54:23;18.52;;;13.80;;
32080;SDS011;18593;51.426;7.030;2024-01-15T08:56:52;19.75;;;13.05;;
32080;SDS011;18593;51.426;7.030;2024-01-15T08:59:19;18.92;;;12.52;;
32080;SDS011;18593;51.426;7.030;2024-01-15T09:01:51;18.88;;;12.18;;
32080;SDS011;18593;51.426;7.030;2024-01-15T09:04:18;15.60;;;10.75;;
32080;SDS011;18593;51.426;7.030;2024-01-15T09:06:47;13.55;;;10.10;;
32080;SDS011;18593;51.426;7.030;2024-01-15T09:09:14;14.20;;;9.25;;
32080;SDS011;18593;51.426;7.030;2024-01-15T09:11:42;13.63;;;9.10;;
32080;SDS011;18593;51.426;7.030;2024-01-15T09:14:11;12.57;;;8.07;;
32080;SDS011;18593;51.426;7.030;2024-01-15T09:16:39;9.63;;;7.13;;
32080;SDS011;18593;51.426;7.030;2024-01-15T09:19:07;10.68;;;7.28;;
32080;SDS011;18593;51.426;7.030;2024-01-15T09:21:35;9.32;;;6.72;;
32080;SDS011;18593;51.426;7.030;2024-01-15T09:24:05;10.43;;;6.70;;
32080;SDS011;18593;51.426;7.030;2024-01-15T09:26:34;11.88;;;7.25;;
32080;SDS011;18593;51.426;7.030;2024-01-15T09:29:01;9.82;;;7.32;;
32080;SDS011;18593;51.426;7.030;2024-01-15T09:31:30;10.23;;;7.75;;
32080;SDS011;18593;51.426;7.030;2024-01-15T09:33:58;11.73;;;7.35;;
32080;SDS011;18593;51.426;7.030;2024-01-15T09:36:27;10.88;;;7.10;;
32080;SDS011;18593;51.426;7.030;2024-01-15T09:38:54;10.40;;;6.68;;
32080;SDS011;18593;51.426;7.030;2024-01-15T09:41:23;9.20;;;6.68;;
32080;SDS011;18593;51.426;7.030;2024-01-15T09:43:50;9.95;;;5.97;;
32080;SDS011;18593;51.426;7.030;2024-01-15T09:46:20;9.00;;;5.80;;
32080;SDS011;18593;51.426;7.030;2024-01-15T09:48:50;8.27;;;5.15;;
32080;SDS011;18593;51.426;7.030;2024-01-15T09:51:17;7.30;;;4.80;;
32080;SDS011;18593;51.426;7.030;2024-01-15T09:53:46;8.05;;;5.28;;
32080;SDS011;18593;51.426;7.030;2024-01-15T09:56:14;8.05;;;5.00;;
32080;SDS011;18593;51.426;7.030;2024-01-15T09:58:43;8.55;;;4.93;;
32080;SDS011;18593;51.426;7.030;2024-01-15T10:01:11;7.93;;;5.38;;
32080;SDS011;18593;51.426;7.030;2024-01-15T10:03:42;7.45;;;5.50;;
32080;SDS011;18593;51.426;7.030;2024-01-15T10:06:13;9.20;;;5.32;;
32080;SDS011;18593;51.426;7.030;2024-01-15T10:08:45;8.23;;;5.15;;
32080;SDS011;18593;51.426;7.030;2024-01-15T10:11:16;6.78;;;4.65;;
32080;SDS011;18593;51.426;7.030;2024-01-15T10:13:45;7.65;;;4.65;;
32080;SDS011;18593;51.426;7.030;2024-01-15T10:16:16;8.50;;;4.53;;
32080;SDS011;18593;51.426;7.030;2024-01-15T10:18:44;7.82;;;4.95;;
32080;SDS011;18593;51.426;7.030;2024-01-15T10:21:13;8.35;;;4.40;;
32080;SDS011;18593;51.426;7.030;2024-01-15T10:23:41;7.97;;;5.07;;
32080;SDS011;18593;51.426;7.030;2024-01-15T10:26:09;8.90;;;4.57;;
32080;SDS011;18593;51.426;7.030;2024-01-15T10:28:37;7.63;;;4.28;;
32080;SDS011;18593;51.426;7.030;2024-01-15T10:31:06;7.35;;;4.28;;
32080;SDS011;18593;51.426;7.030;2024-01-15T10:33:35;6.80;;;3.85;;
32080;SDS011;18593;51.426;7.030;2024-01-15T10:36:03;8.60;;;4.75;;
32080;SDS011;18593;51.426;7.030;2024-01-15T10:38:42;6.90;;;4.10;;
32080;SDS011;18593;51.426;7.030;2024-01-15T10:41:15;6.93;;;4.50;;
32080;SDS011;18593;51.426;7.030;2024-01-15T10:43:53;9.30;;;4.25;;
32080;SDS011;18593;51.426;7.030;2024-01-15T10:46:22;6.68;;;3.90;;
32080;SDS011;18593;51.426;7.030;2024-01-15T10:48:50;10.25;;;4.18;;
32080;SDS011;18593;51.426;7.030;2024-01-15T10:51:20;8.20;;;4.22;;
32080;SDS011;18593;51.426;7.030;2024-01-15T10:53:51;10.65;;;4.30;;
32080;SDS011;18593;51.426;7.030;2024-01-15T10:56:22;8.18;;;4.07;;
32080;SDS011;18593;51.426;7.030;2024-01-15T10:58:51;9.27;;;4.20;;
32080;SDS011;18593;51.426;7.030;2024-01-15T11:01:21;9.30;;;4.93;;
32080;SDS011;18593;51.426;7.030;2024-01-15T11:03:50;10.80;;;5.60;;
32080;SDS011;18593;51.426;7.030;2024-01-15T11:06:24;9.50;;;4.80;;
32080;SDS011;18593;51.426;7.030;2024-01-15T11:08:55;11.35;;;6.05;;
32080;SDS011;18593;51.426;7.030;2024-01-15T11:11:25;10.50;;;4.32;;
32080;SDS011;18593;51.426;7.030;2024-01-15T11:13:55;13.60;;;4.15;;
32080;SDS011;18593;51.426;7.030;2024-01-15T11:16:24;7.90;;;4.00;;
32080;SDS011;18593;51.426;7.030;2024-01-15T11:19:34;9.98;;;4.00;;
32080;SDS011;18593;51.426;7.030;2024-01-15T11:24:37;8.68;;;4.40;;
32080;SDS011;18593;51.426;7.030;2024-01-15T11:27:07;7.80;;;4.38;;
32080;SDS011;18593;51.426;7.030;2024-01-15T11:29:37;9.88;;;4.47;;
32080;SDS011;18593;51.426;7.030;2024-01-15T11:32:05;7.25;;;4.30;;
32080;SDS011;18593;51.426;7.030;2024-01-15T11:34:50;9.40;;;4.60;;
32080;SDS011;18593;51.426;7.030;2024-01-15T11:37:28;8.98;;;4.68;;
32080;SDS011;18593;51.426;7.030;2024-01-15T11:40:36;10.00;;;5.05;;
32080;SDS011;18593;51.426;7.030;2024-01-15T11:43:08;8.15;;;4.82;;
32080;SDS011;18593;51.426;7.030;2024-01-15T11:45:36;11.07;;;4.78;;
32080;SDS011;18593;51.426;7.030;2024-01-15T11:48:10;10.77;;;5.93;;
32080;SDS011;18593;51.426;7.030;2024-01-15T11:50:46;10.82;;;6.03;;
32080;SDS011;18593;51.426;7.030;2024-01-15T11:53:26;10.57;;;5.78;;
32080;SDS011;18593;51.426;7.030;2024-01-15T11:56:02;11.90;;;5.43;;
32080;SDS011;18593;51.426;7.030;2024-01-15T11:58:34;10.15;;;5.38;;
32080;SDS011;18593;51.426;7.030;2024-01-15T12:01:04;10.87;;;4.83;;
32080;SDS011;18593;51.426;7.030;2024-01-15T12:03:32;9.18;;;4.68;;
32080;SDS011;18593;51.426;7.030;2024-01-15T12:06:00;13.75;;;4.90;;
32080;SDS011;18593;51.426;7.030;2024-01-15T12:08:28;10.70;;;5.20;;
32080;SDS011;18593;51.426;7.030;2024-01-15T12:10:56;9.52;;;4.80;;
32080;SDS011;18593;51.426;7.030;2024-01-15T12:13:25;10.45;;;5.13;;
32080;SDS011;18593;51.426;7.030;2024-01-15T12:15:54;12.32;;;4.32;;
32080;SDS011;18593;51.426;7.030;2024-01-15T12:18:22;8.70;;;4.25;;
32080;SDS011;18593;51.426;7.030;2024-01-15T12:20:50;7.05;;;4.20;;
32080;SDS011;18593;51.426;7.030;2024-01-15T12:23:21;12.13;;;4.43;;
32080;SDS011;18593;51.426;7.030;2024-01-15T12:25:50;8.73;;;3.85;;
32080;SDS011;18593;51.426;7.030;2024-01-15T12:28:19;11.52;;;4.50;;
32080;SDS011;18593;51.426;7.030;2024-01-15T12:30:49;8.32;;;4.10;;
32080;SDS011;18593;51.426;7.030;2024-01-15T12:33:17;12.13;;;4.23;;
32080;SDS011;18593;51.426;7.030;2024-01-15T12:35:47;11.23;;;3.80;;
32080;SDS011;18593;51.426;7.030;2024-01-15T12:38:16;12.13;;;3.70;;
32080;SDS011;18593;51.426;7.030;2024-01-15T12:40:46;9.57;;;3.38;;
32080;SDS011;18593;51.426;7.030;2024-01-15T12:43:15;10.48;;;3.55;;
32080;SDS011;18593;51.426;7.030;2024-01-15T12:45:43;17.67;;;3.58;;
32080;SDS011;18593;51.426;7.030;2024-01-15T12:48:13;7.93;;;3.05;;
32080;SDS011;18593;51.426;7.030;2024-01-15T12:50:42;10.48;;;3.20;;
32080;SDS011;18593;51.426;7.030;2024-01-15T12:53:13;12.02;;;3.13;;
32080;SDS011;18593;51.426;7.030;2024-01-15T12:55:41;8.43;;;3.17;;
32080;SDS011;18593;51.426;7.030;2024-01-15T12:58:08;8.60;;;3.65;;
32080;SDS011;18593;51.426;7.030;2024-01-15T13:00:36;11.82;;;3.30;;
32080;SDS011;18593;51.426;7.030;2024-01-15T13:03:03;11.13;;;3.30;;
32080;SDS011;18593;51.426;7.030;2024-01-15T13:05:33;9.68;;;3.65;;
32080;SDS011;18593;51.426;7.030;2024-01-15T13:08:01;8.88;;;3.22;;
32080;SDS011;18593;51.426;7.030;2024-01-15T13:10:30;7.78;;;3.03;;
32080;SDS011;18593;51.426;7.030;2024-01-15T13:12:58;7.55;;;3.40;;
32080;SDS011;18593;51.426;7.030;2024-01-15T13:15:27;11.23;;;3.90;;
32080;SDS011;18593;51.426;7.030;2024-01-15T13:17:55;10.45;;;3.80;;
32080;SDS011;18593;51.426;7.030;2024-01-15T13:20:22;9.13;;;3.58;;
32080;SDS011;18593;51.426;7.030;2024-01-15T13:22:51;9.18;;;3.90;;
32080;SDS011;18593;51.426;7.030;2024-01-15T13:25:20;13.85;;;4.10;;
32080;SDS011;18593;51.426;7.030;2024-01-15T13:27:48;9.13;;;3.58;;
32080;SDS011;18593;51.426;7.030;2024-01-15T13:30:17;12.40;;;3.95;;
32080;SDS011;18593;51.426;7.030;2024-01-15T13:32:45;10.60;;;3.95;;
32080;SDS011;18593;51.426;7.030;2024-01-15T13:35:13;10.40;;;4.03;;
32080;SDS011;18593;51.426;7.030;2024-01-15T13:37:41;10.13;;;3.95;;
32080;SDS011;18593;51.426;7.030;2024-01-15T13:40:11;10.43;;;4.50;;
32080;SDS011;18593;51.426;7.030;2024-01-15T13:42:41;15.02;;;4.28;;
32080;SDS011;18593;51.426;7.030;2024-01-15T13:45:09;13.40;;;4.35;;
32080;SDS011;18593;51.426;7.030;2024-01-15T13:47:39;9.20;;;4.60;;
32080;SDS011;18593;51.426;7.030;2024-01-15T13:50:07;10.23;;;4.20;;
32080;SDS011;18593;51.426;7.030;2024-01-15T13:52:36;8.88;;;4.10;;
32080;SDS011;18593;51.426;7.030;2024-01-15T13:55:03;11.30;;;4.80;;
32080;SDS011;18593;51.426;7.030;2024-01-15T13:57:35;8.25;;;4.50;;
32080;SDS011;18593;51.426;7.030;2024-01-15T14:00:03;9.38;;;4.32;;
32080;SDS011;18593;51.426;7.030;2024-01-15T14:02:36;9.77;;;4.97;;
32080;SDS011;18593;51.426;7.030;2024-01-15T14:05:04;11.23;;;5.28;;
32080;SDS011;18593;51.426;7.030;2024-01-15T14:07:32;8.52;;;4.78;;
32080;SDS011;18593;51.426;7.030;2024-01-15T14:10:00;10.38;;;4.63;;
32080;SDS011;18593;51.426;7.030;2024-01-15T14:12:29;10.73;;;4.50;;
32080;SDS011;18593;51.426;7.030;2024-01-15T14:14:58;9.93;;;4.18;;
32080;SDS011;18593;51.426;7.030;2024-01-15T14:17:25;7.05;;;4.35;;
32080;SDS011;18593;51.426;7.030;2024-01-15T14:19:55;10.82;;;4.80;;
32080;SDS011;18593;51.426;7.030;2024-01-15T14:22:25;8.75;;;4.30;;
32080;SDS011;18593;51.426;7.030;2024-01-15T14:24:53;8.40;;;4.53;;
32080;SDS011;18593;51.426;7.030;2024-01-15T14:27:21;7.43;;;4.45;;
32080;SDS011;18593;51.426;7.030;2024-01-15T14:29:49;8.05;;;4.63;;
32080;SDS011;18593;51.426;7.030;2024-01-15T14:32:18;8.32;;;4.35;;
32080;SDS011;18593;51.426;7.030;2024-01-15T14:34:45;9.43;;;4.18;;
32080;SDS011;18593;51.426;7.030;2024-01-15T14:37:13;7.45;;;4.05;;
32080;SDS011;18593;51.426;7.030;2024-01-15T14:39:40;8.38;;;4.80;;
32080;SDS011;18593;51.426;7.030;2024-01-15T14:42:08;8.75;;;4.18;;
32080;SDS011;18593;51.426;7.030;2024-01-15T14:44:36;7.88;;;4.45;;